createdAt,value
2018-05-17T00:02:22.569Z,10.20
2018-05-17T00:04:50.828Z,10.30
2018-05-17T00:07:19.065Z,10.30
2018-05-17T00:09:46.529Z,10.30
2018-05-17T00:12:14.005Z,10.30
2018-05-17T00:14:41.477Z,10.30
2018-05-17T00:17:08.950Z,10.30
2018-05-17T00:19:36.492Z,10.30
2018-05-17T00:22:03.961Z,10.30
2018-05-17T00:24:31.513Z,10.20
2018-05-17T00:26:59.132Z,10.20
2018-05-17T00:29:26.585Z,10.20
2018-05-17T00:31:54.053Z,10.30
2018-05-17T00:34:21.516Z,10.30
2018-05-17T00:36:48.985Z,10.30
2018-05-17T00:39:16.449Z,10.20
2018-05-17T00:41:43.914Z,10.20
2018-05-17T00:44:11.543Z,10.20
2018-05-17T00:46:39.045Z,10.20
2018-05-17T00:49:06.609Z,10.20
2018-05-17T00:51:34.081Z,10.20
2018-05-17T00:54:02.348Z,10.30
2018-05-17T00:56:29.903Z,10.20
2018-05-17T00:58:57.461Z,10.30
2018-05-17T01:01:25.956Z,10.30
2018-05-17T01:03:53.425Z,10.30
2018-05-17T01:06:21.660Z,10.30
2018-05-17T01:08:49.299Z,10.20
2018-05-17T01:11:16.760Z,10.20
2018-05-17T01:13:44.225Z,10.20
2018-05-17T01:16:11.712Z,10.20
2018-05-17T01:18:39.193Z,10.20
2018-05-17T01:21:07.449Z,10.20
2018-05-17T01:23:35.009Z,10.20
2018-05-17T01:26:02.573Z,10.20
2018-05-17T01:28:30.050Z,10.20
2018-05-17T01:30:58.285Z,10.20
2018-05-17T01:33:25.749Z,10.20
2018-05-17T01:35:53.212Z,10.20
2018-05-17T01:38:25.596Z,10.20
2018-05-17T01:40:53.153Z,10.20
2018-05-17T01:43:20.622Z,10.20
2018-05-17T01:45:48.085Z,10.20
2018-05-17T01:48:15.628Z,10.20
2018-05-17T01:50:43.090Z,10.20
2018-05-17T01:53:10.648Z,10.30
2018-05-17T01:55:38.924Z,10.20
2018-05-17T01:58:06.489Z,10.20
2018-05-17T02:00:33.961Z,10.20
2018-05-17T02:03:01.505Z,10.20
2018-05-17T02:05:29.070Z,10.20
2018-05-17T02:07:56.624Z,10.20
2018-05-17T02:10:24.101Z,10.20
2018-05-17T02:12:51.645Z,10.20
2018-05-17T02:15:19.123Z,10.20
2018-05-17T02:17:47.377Z,10.10
2018-05-17T02:20:14.944Z,10.10
2018-05-17T02:22:42.402Z,10.20
2018-05-17T02:25:09.957Z,10.20
2018-05-17T02:27:37.432Z,10.30
2018-05-17T02:30:04.979Z,10.20
2018-05-17T02:32:32.450Z,10.30
2018-05-17T02:34:59.918Z,10.20
2018-05-17T02:37:28.153Z,10.20
2018-05-17T02:39:55.621Z,10.20
2018-05-17T02:42:23.093Z,10.30
2018-05-17T02:44:50.650Z,10.30
2018-05-17T02:47:18.116Z,10.30
2018-05-17T02:49:46.384Z,10.30
2018-05-17T02:52:13.861Z,10.20
2018-05-17T02:54:41.459Z,10.20
2018-05-17T02:57:08.918Z,10.30
2018-05-17T02:59:36.417Z,10.30
2018-05-17T03:02:03.897Z,10.30
2018-05-17T03:04:32.163Z,10.40
2018-05-17T03:06:59.624Z,10.40
2018-05-17T03:09:27.097Z,10.40
2018-05-17T03:11:55.345Z,10.40
2018-05-17T03:14:22.826Z,10.40
2018-05-17T03:16:51.083Z,10.40
2018-05-17T03:19:18.549Z,10.30
2018-05-17T03:21:46.092Z,10.40
2018-05-17T03:24:13.617Z,10.40
2018-05-17T03:26:41.122Z,10.30
2018-05-17T03:29:08.604Z,10.30
2018-05-17T03:31:36.837Z,10.40
2018-05-17T03:34:04.309Z,10.40
2018-05-17T03:36:31.781Z,10.40
2018-05-17T03:38:59.240Z,10.40
2018-05-17T03:41:26.787Z,10.50
2018-05-17T03:43:54.261Z,10.40
2018-05-17T03:46:21.733Z,10.50
2018-05-17T03:48:51.144Z,10.50
2018-05-17T03:51:19.372Z,10.50
2018-05-17T03:53:46.947Z,10.40
2018-05-17T03:56:14.504Z,10.40
2018-05-17T03:58:41.982Z,10.50
2018-05-17T04:01:22.252Z,10.50
2018-05-17T04:04:01.662Z,10.50
2018-05-17T04:06:42.285Z,10.50
2018-05-17T04:09:09.744Z,10.50
2018-05-17T04:11:37.213Z,10.50
2018-05-17T04:14:04.712Z,10.50
2018-05-17T04:16:33.086Z,10.50
2018-05-17T04:19:00.649Z,10.60
2018-05-17T04:21:28.138Z,10.50
2018-05-17T04:23:56.380Z,10.40
2018-05-17T04:26:23.851Z,10.40
2018-05-17T04:28:51.397Z,10.40
2018-05-17T04:31:18.867Z,10.50
2018-05-17T04:33:46.412Z,10.50
2018-05-17T04:36:13.888Z,10.50
2018-05-17T04:38:42.150Z,10.50
2018-05-17T04:41:09.616Z,10.50
2018-05-17T04:43:37.084Z,10.60
2018-05-17T04:46:05.343Z,10.70
2018-05-17T04:48:32.900Z,10.70
2018-05-17T04:51:00.385Z,10.80
2018-05-17T04:53:28.643Z,11.10
2018-05-17T04:55:56.197Z,11.10
2018-05-17T04:58:24.429Z,11.60
2018-05-17T05:00:51.888Z,11.60
2018-05-17T05:03:19.389Z,11.50
2018-05-17T05:05:46.845Z,11.40
2018-05-17T05:08:15.120Z,11.10
2018-05-17T05:10:42.585Z,11.10
2018-05-17T05:13:10.145Z,11.10
2018-05-17T05:15:38.432Z,11.10
2018-05-17T05:18:05.872Z,11.10
2018-05-17T05:20:33.337Z,11.10
2018-05-17T05:23:00.799Z,11.30
2018-05-17T05:25:29.069Z,12.40
2018-05-17T05:27:56.626Z,12.40
2018-05-17T05:30:24.090Z,12.70
2018-05-17T05:32:52.320Z,12.60
2018-05-17T05:35:19.777Z,12.60
2018-05-17T05:37:47.281Z,12.60
2018-05-17T05:40:14.845Z,12.40
2018-05-17T05:42:42.317Z,12.30
2018-05-17T05:45:09.859Z,12.20
2018-05-17T05:47:37.434Z,12.20
2018-05-17T05:50:04.984Z,12.10
2018-05-17T05:52:32.542Z,12.00
2018-05-17T05:54:59.997Z,12.00
2018-05-17T05:57:27.559Z,12.00
2018-05-17T05:59:55.119Z,12.00
2018-05-17T06:02:22.720Z,11.90
2018-05-17T06:04:50.202Z,11.90
2018-05-17T06:07:17.605Z,11.90
2018-05-17T06:09:45.157Z,11.90
2018-05-17T06:12:13.493Z,11.90
2018-05-17T06:14:40.949Z,11.90
2018-05-17T06:17:08.453Z,12.00
2018-05-17T06:19:35.913Z,12.00
2018-05-17T06:22:03.426Z,12.00
2018-05-17T06:24:30.922Z,12.10
2018-05-17T06:26:58.340Z,12.20
2018-05-17T06:29:25.797Z,12.30
2018-05-17T06:31:53.361Z,12.30
2018-05-17T06:34:20.857Z,12.40
2018-05-17T06:36:48.484Z,12.60
2018-05-17T06:39:15.984Z,12.80
2018-05-17T06:41:43.456Z,12.90
2018-05-17T06:44:10.996Z,13.00
2018-05-17T06:46:38.560Z,13.10
2018-05-17T06:49:06.129Z,13.40
2018-05-17T06:51:33.589Z,13.60
2018-05-17T06:54:01.048Z,13.70
2018-05-17T06:56:28.593Z,13.80
2018-05-17T06:58:56.117Z,13.80
2018-05-17T07:01:23.617Z,13.90
2018-05-17T07:03:51.178Z,14.00
2018-05-17T07:06:18.734Z,14.10
2018-05-17T07:08:46.297Z,14.00
2018-05-17T07:11:13.757Z,13.90
2018-05-17T07:13:41.213Z,13.80
2018-05-17T07:16:08.683Z,13.90
2018-05-17T07:18:36.403Z,14.10
2018-05-17T07:21:03.689Z,14.40
2018-05-17T07:23:31.157Z,14.50
2018-05-17T07:25:58.626Z,14.60
2018-05-17T07:28:26.877Z,14.90
2018-05-17T07:30:54.438Z,14.90
2018-05-17T07:33:21.895Z,15.10
2018-05-17T07:35:49.462Z,15.20
2018-05-17T07:38:17.021Z,15.20
2018-05-17T07:40:44.580Z,15.20
2018-05-17T07:43:12.041Z,15.10
2018-05-17T07:45:39.497Z,15.00
2018-05-17T07:48:06.957Z,14.90
2018-05-17T07:50:34.424Z,15.00
2018-05-17T07:53:01.929Z,15.10
2018-05-17T07:55:29.520Z,15.20
2018-05-17T07:57:56.993Z,15.40
2018-05-17T08:00:24.569Z,15.60
2018-05-17T08:02:52.112Z,15.40
2018-05-17T08:05:19.672Z,15.30
2018-05-17T08:07:47.238Z,15.40
2018-05-17T08:10:14.793Z,15.40
2018-05-17T08:12:42.265Z,15.30
2018-05-17T08:15:09.815Z,15.30
2018-05-17T08:17:37.377Z,15.30
2018-05-17T08:20:05.597Z,15.50
2018-05-17T08:22:33.105Z,15.50
2018-05-17T08:25:00.569Z,15.60
2018-05-17T08:27:28.124Z,15.50
2018-05-17T08:29:55.685Z,15.40
2018-05-17T08:32:23.922Z,15.40
2018-05-17T08:34:51.420Z,15.40
2018-05-17T08:37:18.886Z,15.40
2018-05-17T08:39:46.342Z,15.40
2018-05-17T08:42:13.904Z,15.40
2018-05-17T08:44:42.235Z,15.50
2018-05-17T08:47:09.680Z,15.50
2018-05-17T08:49:37.138Z,15.40
2018-05-17T08:52:04.649Z,15.60
2018-05-17T08:54:32.135Z,15.60
2018-05-17T08:57:00.385Z,15.90
2018-05-17T08:59:27.920Z,15.90
2018-05-17T09:01:55.416Z,16.00
2018-05-17T09:04:22.885Z,16.10
2018-05-17T09:06:51.110Z,16.30
2018-05-17T09:09:18.665Z,16.30
2018-05-17T09:11:46.113Z,16.10
2018-05-17T09:14:13.589Z,15.90
2018-05-17T09:16:41.048Z,15.60
2018-05-17T09:19:08.531Z,15.30
2018-05-17T09:21:35.989Z,14.90
2018-05-17T09:24:04.222Z,14.50
2018-05-17T09:26:31.677Z,14.40
2018-05-17T09:28:59.181Z,14.40
2018-05-17T09:31:26.745Z,14.40
2018-05-17T09:33:54.220Z,14.30
2018-05-17T09:36:22.472Z,14.50
2018-05-17T09:38:49.941Z,14.50
2018-05-17T09:41:17.489Z,14.50
2018-05-17T09:43:44.864Z,14.60
2018-05-17T09:46:12.475Z,14.70
2018-05-17T09:48:39.976Z,14.90
2018-05-17T09:51:08.268Z,15.00
2018-05-17T09:53:35.805Z,15.00
2018-05-17T09:56:03.373Z,15.30
2018-05-17T09:58:30.840Z,15.50
2018-05-17T10:00:58.298Z,15.60
2018-05-17T10:03:25.757Z,15.80
2018-05-17T10:05:53.220Z,15.90
2018-05-17T10:08:21.497Z,15.90
2018-05-17T10:10:48.954Z,15.90
2018-05-17T10:13:16.417Z,15.90
2018-05-17T10:15:44.650Z,15.80
2018-05-17T10:18:12.125Z,15.80
2018-05-17T10:20:39.691Z,15.90
2018-05-17T10:23:07.320Z,15.80
2018-05-17T10:25:34.713Z,15.80
2018-05-17T10:28:02.168Z,15.80
2018-05-17T10:30:29.629Z,15.80
2018-05-17T10:32:57.105Z,15.70
2018-05-17T10:35:25.336Z,15.60
2018-05-17T10:37:52.813Z,15.50
2018-05-17T10:40:20.269Z,15.50
2018-05-17T10:42:47.838Z,15.60
2018-05-17T10:45:16.193Z,15.70
2018-05-17T10:47:43.669Z,16.00
2018-05-17T10:50:11.229Z,16.30
2018-05-17T10:52:38.689Z,16.50
2018-05-17T10:55:06.157Z,16.70
2018-05-17T10:57:33.617Z,16.90
2018-05-17T11:00:01.164Z,17.20
2018-05-17T11:02:28.631Z,17.20
2018-05-17T11:04:56.181Z,17.20
2018-05-17T11:07:23.745Z,17.10
2018-05-17T11:09:51.312Z,17.10
2018-05-17T11:12:18.943Z,17.20
2018-05-17T11:14:46.424Z,17.20
2018-05-17T11:17:14.661Z,17.10
2018-05-17T11:19:42.123Z,17.10
2018-05-17T11:22:09.624Z,17.30
2018-05-17T11:24:37.120Z,17.50
2018-05-17T11:27:05.353Z,18.50
2018-05-17T11:29:32.915Z,18.50
2018-05-17T11:32:00.377Z,18.70
2018-05-17T11:34:27.841Z,18.60
2018-05-17T11:36:55.395Z,18.70
2018-05-17T11:39:22.848Z,18.80
2018-05-17T11:41:50.388Z,18.70
2018-05-17T11:44:17.869Z,18.50
2018-05-17T11:46:45.429Z,18.40
2018-05-17T11:49:12.984Z,17.80
2018-05-17T11:51:40.440Z,17.50
2018-05-17T11:54:07.901Z,17.40
2018-05-17T11:56:35.466Z,17.30
2018-05-17T11:59:03.025Z,17.20
2018-05-17T12:01:30.603Z,17.30
2018-05-17T12:03:58.045Z,17.50
2018-05-17T12:06:25.600Z,17.60
2018-05-17T12:08:53.166Z,17.60
2018-05-17T12:11:20.682Z,17.50
2018-05-17T12:13:48.176Z,17.50
2018-05-17T12:16:15.632Z,17.50
2018-05-17T12:18:43.093Z,17.40
2018-05-17T12:21:10.665Z,17.30
2018-05-17T12:23:38.225Z,17.20
2018-05-17T12:26:05.680Z,17.10
2018-05-17T12:28:33.138Z,17.00
2018-05-17T12:31:00.693Z,16.70
2018-05-17T12:33:28.256Z,16.50
2018-05-17T12:35:55.774Z,16.30
2018-05-17T12:38:23.231Z,16.20
2018-05-17T12:40:50.691Z,16.10
2018-05-17T12:43:18.149Z,15.90
2018-05-17T12:45:45.645Z,15.80
2018-05-17T12:48:13.105Z,15.60
2018-05-17T12:50:40.568Z,15.40
2018-05-17T12:53:08.121Z,15.20
2018-05-17T12:55:35.584Z,15.10
2018-05-17T12:58:03.857Z,15.20
2018-05-17T13:00:31.421Z,15.10
2018-05-17T13:02:58.984Z,15.30
2018-05-17T13:05:26.599Z,15.30
2018-05-17T13:07:54.101Z,15.30
2018-05-17T13:10:21.569Z,15.50
2018-05-17T13:12:49.076Z,15.80
2018-05-17T13:15:16.537Z,16.00
2018-05-17T13:17:43.992Z,16.20
2018-05-17T13:20:11.488Z,16.50
2018-05-17T13:22:38.945Z,16.80
2018-05-17T13:25:06.405Z,16.80
2018-05-17T13:27:33.972Z,17.00
2018-05-17T13:30:01.443Z,17.00
2018-05-17T13:32:28.910Z,17.00
2018-05-17T13:34:57.164Z,16.80
2018-05-17T13:37:24.797Z,16.80
2018-05-17T13:39:52.954Z,16.20
2018-05-17T13:42:20.463Z,16.20
2018-05-17T13:44:47.921Z,16.00
2018-05-17T13:47:16.194Z,15.70
2018-05-17T13:49:43.806Z,15.70
2018-05-17T13:52:11.310Z,15.70
2018-05-17T13:54:38.763Z,15.60
2018-05-17T13:57:06.335Z,15.30
2018-05-17T13:59:33.789Z,15.00
2018-05-17T14:02:01.349Z,14.70
2018-05-17T14:04:28.906Z,14.40
2018-05-17T14:06:56.472Z,14.10
2018-05-17T14:09:23.937Z,13.80
2018-05-17T14:11:51.486Z,13.50
2018-05-17T14:14:19.048Z,13.10
2018-05-17T14:16:46.609Z,12.70
2018-05-17T14:19:14.075Z,12.30
2018-05-17T14:21:41.533Z,12.10
2018-05-17T14:24:09.080Z,11.90
2018-05-17T14:26:36.540Z,11.80
2018-05-17T14:29:04.107Z,11.80
2018-05-17T14:31:32.376Z,11.70
2018-05-17T14:33:59.835Z,11.70
2018-05-17T14:36:27.398Z,11.70
2018-05-17T14:38:54.960Z,11.60
2018-05-17T14:41:22.517Z,11.60
2018-05-17T14:43:49.988Z,11.60
2018-05-17T14:46:17.448Z,11.60
2018-05-17T14:48:44.997Z,11.60
2018-05-17T14:51:12.461Z,11.60
2018-05-17T14:53:39.973Z,11.60
2018-05-17T14:56:07.433Z,11.70
2018-05-17T14:58:34.930Z,11.70
2018-05-17T15:01:02.389Z,11.70
2018-05-17T15:03:29.951Z,11.70
2018-05-17T15:05:57.401Z,11.80
2018-05-17T15:08:24.970Z,11.90
2018-05-17T15:10:52.429Z,11.90
2018-05-17T15:13:20.051Z,12.00
2018-05-17T15:15:47.506Z,12.00
2018-05-17T15:18:14.966Z,12.00
2018-05-17T15:20:42.425Z,12.10
2018-05-17T15:23:09.916Z,12.10
2018-05-17T15:25:37.484Z,12.10
2018-05-17T15:28:04.940Z,12.10
2018-05-17T15:30:32.496Z,12.20
2018-05-17T15:32:59.948Z,12.20
2018-05-17T15:35:27.430Z,12.30
2018-05-17T15:37:54.889Z,12.30
2018-05-17T15:40:22.433Z,12.30
2018-05-17T15:42:49.994Z,12.40
2018-05-17T15:45:17.448Z,12.40
2018-05-17T15:47:45.032Z,12.30
2018-05-17T15:50:13.264Z,12.30
2018-05-17T15:52:40.717Z,12.30
2018-05-17T15:55:08.206Z,12.30
2018-05-17T15:57:35.843Z,12.40
2018-05-17T16:00:03.230Z,12.40
2018-05-17T16:02:30.695Z,12.40
2018-05-17T16:04:58.152Z,12.40
2018-05-17T16:07:25.620Z,12.40
2018-05-17T16:09:53.873Z,12.50
2018-05-17T16:12:21.343Z,12.50
2018-05-17T16:14:48.928Z,12.50
2018-05-17T16:17:16.365Z,12.50
2018-05-17T16:19:43.824Z,12.50
2018-05-17T16:22:12.068Z,12.70
2018-05-17T16:24:39.546Z,12.70
2018-05-17T16:27:07.105Z,12.80
2018-05-17T16:29:34.619Z,12.80
2018-05-17T16:32:02.099Z,12.90
2018-05-17T16:34:29.562Z,13.00
2018-05-17T16:36:57.020Z,13.10
2018-05-17T16:39:24.485Z,13.20
2018-05-17T16:41:52.056Z,13.40
2018-05-17T16:44:19.535Z,13.50
2018-05-17T16:46:47.776Z,13.60
2018-05-17T16:49:15.249Z,13.60
2018-05-17T16:51:42.805Z,13.60
2018-05-17T16:54:10.276Z,13.50
2018-05-17T16:56:37.824Z,13.40
2018-05-17T16:59:05.388Z,13.40
2018-05-17T17:01:32.949Z,13.40
2018-05-17T17:04:00.420Z,13.40
2018-05-17T17:06:27.890Z,13.40
2018-05-17T17:08:56.141Z,13.40
2018-05-17T17:11:23.612Z,13.30
2018-05-17T17:13:51.161Z,13.40
2018-05-17T17:16:18.637Z,13.40
2018-05-17T17:18:46.881Z,13.30
2018-05-17T17:21:14.340Z,13.30
2018-05-17T17:23:41.813Z,13.30
2018-05-17T17:26:09.381Z,13.30
2018-05-17T17:28:36.849Z,13.30
2018-05-17T17:31:05.094Z,13.20
2018-05-17T17:33:32.721Z,13.20
2018-05-17T17:36:00.226Z,13.20
2018-05-17T17:38:27.785Z,13.10
2018-05-17T17:40:55.406Z,13.00
2018-05-17T17:43:22.865Z,13.00
2018-05-17T17:45:50.328Z,13.00
2018-05-17T17:48:17.792Z,13.00
2018-05-17T17:50:45.265Z,13.00
2018-05-17T17:53:12.748Z,13.00
2018-05-17T17:55:40.304Z,13.00
2018-05-17T17:58:07.780Z,13.00
2018-05-17T18:00:36.013Z,13.00
2018-05-17T18:03:03.489Z,13.00
2018-05-17T18:05:31.007Z,13.00
2018-05-17T18:07:59.212Z,12.90
2018-05-17T18:10:26.676Z,12.90
2018-05-17T18:12:54.307Z,12.90
2018-05-17T18:15:21.764Z,12.90
2018-05-17T18:17:49.264Z,12.80
2018-05-17T18:20:16.824Z,12.90
2018-05-17T18:22:44.392Z,12.90
2018-05-17T18:25:11.901Z,12.90
2018-05-17T18:27:39.357Z,12.80
2018-05-17T18:30:06.861Z,12.80
2018-05-17T18:32:34.401Z,12.80
2018-05-17T18:35:02.604Z,12.90
2018-05-17T18:37:30.061Z,12.80
2018-05-17T18:39:57.617Z,12.90
2018-05-17T18:42:25.172Z,12.80
2018-05-17T18:44:52.748Z,12.80
2018-05-17T18:47:20.201Z,12.80
2018-05-17T18:49:47.753Z,12.80
2018-05-17T18:52:15.312Z,12.70
2018-05-17T18:54:42.877Z,12.80
2018-05-17T18:57:10.394Z,12.80
2018-05-17T18:59:37.902Z,12.80
2018-05-17T19:02:06.173Z,12.60
2018-05-17T19:04:33.724Z,12.60
2018-05-17T19:07:01.294Z,12.60
2018-05-17T19:09:28.770Z,12.60
2018-05-17T19:11:56.228Z,12.50
2018-05-17T19:14:24.461Z,12.50
2018-05-17T19:16:51.945Z,12.50
2018-05-17T19:19:19.501Z,12.40
2018-05-17T19:21:47.056Z,12.40
2018-05-17T19:24:14.629Z,12.30
2018-05-17T19:26:42.094Z,12.30
2018-05-17T19:29:09.701Z,12.20
2018-05-17T19:31:37.221Z,12.20
2018-05-17T19:34:04.660Z,12.20
2018-05-17T19:36:32.132Z,12.20
2018-05-17T19:38:59.677Z,12.20
2018-05-17T19:41:27.141Z,12.20
2018-05-17T19:43:54.618Z,12.20
2018-05-17T19:46:22.873Z,12.20
2018-05-17T19:48:50.424Z,12.20
2018-05-17T19:51:17.988Z,12.20
2018-05-17T19:53:45.453Z,12.20
2018-05-17T19:56:12.925Z,12.20
2018-05-17T19:58:40.392Z,12.20
2018-05-17T20:01:08.645Z,12.20
2018-05-17T20:03:36.201Z,12.20
2018-05-17T20:06:03.669Z,12.20
2018-05-17T20:08:31.225Z,12.20
2018-05-17T20:10:58.784Z,12.30
2018-05-17T20:13:26.264Z,12.30
2018-05-17T20:15:53.724Z,12.40
2018-05-17T20:18:21.961Z,12.30
2018-05-17T20:20:49.537Z,12.30
2018-05-17T20:23:17.010Z,12.30
2018-05-17T20:25:44.473Z,12.30
2018-05-17T20:28:12.795Z,12.30
2018-05-17T20:30:40.292Z,12.30
2018-05-17T20:33:07.757Z,12.30
2018-05-17T20:35:36.020Z,12.20
2018-05-17T20:38:03.496Z,12.30
2018-05-17T20:40:31.038Z,12.30
2018-05-17T20:42:58.605Z,12.30
2018-05-17T20:45:26.068Z,12.30
2018-05-17T20:47:53.543Z,12.30
2018-05-17T20:50:21.793Z,12.30
2018-05-17T20:52:49.256Z,12.30
2018-05-17T20:55:16.761Z,12.20
2018-05-17T20:57:44.185Z,12.20
2018-05-17T21:00:11.732Z,12.20
2018-05-17T21:02:39.284Z,12.20
2018-05-17T21:05:06.854Z,12.20
2018-05-17T21:07:34.421Z,12.20
2018-05-17T21:10:01.968Z,12.20
2018-05-17T21:12:30.249Z,12.20
2018-05-17T21:14:57.810Z,12.20
2018-05-17T21:17:25.277Z,12.20
2018-05-17T21:19:52.736Z,12.20
2018-05-17T21:22:20.285Z,12.20
2018-05-17T21:24:47.762Z,12.20
2018-05-17T21:27:15.286Z,12.20
2018-05-17T21:29:43.456Z,12.10
2018-05-17T21:32:10.995Z,12.10
2018-05-17T21:34:38.445Z,12.10
2018-05-17T21:37:05.953Z,12.10
2018-05-17T21:39:33.517Z,12.20
2018-05-17T21:42:01.075Z,12.20
2018-05-17T21:44:29.411Z,12.10
2018-05-17T21:46:56.865Z,12.10
2018-05-17T21:49:24.385Z,12.10
2018-05-17T21:51:51.929Z,12.00
2018-05-17T21:54:19.493Z,12.00
2018-05-17T21:56:46.972Z,12.00
2018-05-17T21:59:15.204Z,12.00
2018-05-17T22:01:42.689Z,12.00
2018-05-17T22:04:10.161Z,12.00
2018-05-17T22:06:38.389Z,12.00
2018-05-17T22:09:05.852Z,12.10
2018-05-17T22:11:33.321Z,12.00
2018-05-17T22:14:00.897Z,12.00
2018-05-17T22:16:28.449Z,12.00
2018-05-17T22:18:55.973Z,12.00
2018-05-17T22:21:23.473Z,12.00
2018-05-17T22:23:50.949Z,12.00
2018-05-17T22:26:18.416Z,12.00
2018-05-17T22:28:46.677Z,11.90
2018-05-17T22:31:14.225Z,11.90
2018-05-17T22:33:41.744Z,12.00
2018-05-17T22:36:09.305Z,11.90
2018-05-17T22:38:36.761Z,11.90
2018-05-17T22:41:04.260Z,11.90
2018-05-17T22:43:31.825Z,11.80
2018-05-17T22:45:59.300Z,11.70
2018-05-17T22:48:26.844Z,11.70
2018-05-17T22:50:54.405Z,11.70
2018-05-17T22:53:21.966Z,11.70
2018-05-17T22:55:49.525Z,11.70
2018-05-17T22:58:29.681Z,11.60
2018-05-17T23:00:58.081Z,11.70
2018-05-17T23:03:26.334Z,11.70
2018-05-17T23:05:53.805Z,11.60
2018-05-17T23:08:21.270Z,11.60
2018-05-17T23:10:49.537Z,11.50
2018-05-17T23:13:17.084Z,11.50
2018-05-17T23:15:45.365Z,11.50
2018-05-17T23:18:12.845Z,11.60
2018-05-17T23:20:41.100Z,11.60
2018-05-17T23:23:08.568Z,11.60
2018-05-17T23:25:36.052Z,11.60
2018-05-17T23:28:04.353Z,11.60
2018-05-17T23:30:31.810Z,11.60
2018-05-17T23:32:59.285Z,11.70
2018-05-17T23:35:26.756Z,11.60
2018-05-17T23:37:54.217Z,11.60
2018-05-17T23:40:33.484Z,11.60
2018-05-17T23:43:01.740Z,11.60
2018-05-17T23:45:29.209Z,11.60
2018-05-17T23:47:56.682Z,11.60
2018-05-17T23:50:25.740Z,11.60
2018-05-17T23:52:53.212Z,11.60
2018-05-17T23:55:20.688Z,11.60
2018-05-17T23:57:48.948Z,11.50
